Time;durP1;ratioP1;P1;durP2;ratioP2;P2;SDS_P1;SDS_P2;PMS_P1;PMS_P2;Temp;Humidity;BMP_temperature;BMP_pressure;BME280_temperature;BME280_humidity;BME280_pressure;Samples;Min_cycle;Max_cycle;Signal;HPM_P1;HPM_P2
2023/01/29 00:01:04;;;;;;;;;;;;;;;2.89;100.00;100708.50;5011617;28;20022;-71
2023/01/29 00:03:29;;;;;;;9.65;6.50;;;;;;;2.69;100.00;100682.50;5017772;28;19914;-69
2023/01/29 00:05:55;;;;;;;12.55;7.07;;;;;;;2.86;100.00;100714.28;5011253;28;20041;-72
2023/01/29 00:08:20;;;;;;;9.38;6.72;;;;;;;2.80;100.00;100700.22;5011488;28;20029;-70
2023/01/29 00:10:46;;;;;;;10.95;7.68;;;;;;;2.94;100.00;100714.84;5010648;28;20476;-70
2023/01/29 00:13:12;;;;;;;11.15;7.82;;;;;;;2.94;100.00;100714.84;5011608;28;20395;-72
2023/01/29 00:15:37;;;;;;;10.20;7.00;;;;;;;2.97;100.00;100716.72;5010859;28;20026;-75
2023/01/29 00:18:03;;;;;;;11.57;7.00;;;;;;;2.96;100.00;100726.03;5011438;28;20022;-73
2023/01/29 00:20:30;;;;;;;15.48;7.63;;;;;;;2.90;100.00;100734.13;5005021;28;20034;-74
2023/01/29 00:22:55;;;;;;;14.25;7.80;;;;;;;2.89;100.00;100716.16;4994176;28;20037;-71
2023/01/29 00:25:20;;;;;;;10.07;6.93;;;;;;;2.65;100.00;100688.13;4994358;28;20034;-74
2023/01/29 00:27:46;;;;;;;9.88;6.97;;;;;;;2.87;100.00;100725.38;5027182;28;20104;-70
2023/01/29 00:30:12;;;;;;;9.63;6.22;;;;;;;2.88;100.00;100730.56;5027610;28;20137;-75
2023/01/29 00:32:41;;;;;;;9.40;6.55;;;;;;;2.89;100.00;100740.00;5012379;28;20037;-74
2023/01/29 00:35:07;;;;;;;9.07;6.23;;;;;;;2.82;100.00;100729.25;5045733;28;20036;-74
2023/01/29 00:37:34;;;;;;;10.30;7.05;;;;;;;2.76;100.00;100729.69;5037484;28;20041;-74
2023/01/29 00:40:20;;;;;;;11.00;6.78;;;;;;;2.76;100.00;100739.88;4988167;28;20034;-73
2023/01/29 00:45:29;;;;;;;9.65;7.10;;;;;;;2.67;100.00;100732.47;4988988;28;20120;-75
2023/01/29 00:47:55;;;;;;;11.73;7.20;;;;;;;2.57;100.00;100710.50;4988300;28;20565;-74
2023/01/29 00:50:20;;;;;;;11.18;7.13;;;;;;;2.73;100.00;100729.47;4971928;28;20034;-72
2023/01/29 00:52:47;;;;;;;12.23;7.15;;;;;;;2.68;100.00;100725.69;4988548;28;20034;-72
2023/01/29 00:55:13;;;;;;;9.18;6.35;;;;;;;2.70;100.00;100734.34;4988433;28;20038;-73
2023/01/29 00:57:38;;;;;;;10.15;6.57;;;;;;;2.79;100.00;100737.56;4987586;28;20413;-73
2023/01/29 01:00:06;;;;;;;9.43;6.65;;;;;;;2.87;100.00;100744.09;4969026;28;20047;-74
2023/01/29 01:05:17;;;;;;;8.93;5.88;;;;;;;2.91;100.00;100746.09;4968438;28;20496;-72
2023/01/29 01:07:54;;;;;;;9.75;6.22;;;;;;;2.91;100.00;100735.00;4952519;28;20503;-72
2023/01/29 01:10:31;;;;;;;10.38;6.45;;;;;;;3.04;100.00;100745.31;4972285;28;20034;-77
2023/01/29 01:12:59;;;;;;;9.18;6.00;;;;;;;2.80;100.00;100705.31;5008380;28;20034;-72
2023/01/29 01:15:33;;;;;;;13.48;6.65;;;;;;;3.00;100.00;100744.97;5010602;28;20037;-71
2023/01/29 01:17:59;;;;;;;9.68;6.32;;;;;;;3.04;100.00;100747.88;5010931;28;20041;-73
2023/01/29 01:20:27;;;;;;;9.43;6.38;;;;;;;3.05;100.00;100749.66;5010799;28;20122;-75
2023/01/29 01:22:53;;;;;;;9.95;6.75;;;;;;;3.07;100.00;100759.97;5010387;28;20096;-72
2023/01/29 01:25:20;;;;;;;9.13;6.05;;;;;;;3.05;100.00;100752.19;5009349;28;20053;-76
2023/01/29 01:27:45;;;;;;;9.30;6.50;;;;;;;3.08;100.00;100749.84;5009008;28;20050;-72
2023/01/29 01:30:14;;;;;;;8.32;5.78;;;;;;;3.15;100.00;100755.41;5010667;28;20033;-73
2023/01/29 01:32:39;;;;;;;9.07;6.20;;;;;;;2.99;100.00;100739.00;5009374;28;20033;-74
2023/01/29 01:35:06;;;;;;;9.18;6.25;;;;;;;2.71;100.00;100705.53;5009596;28;20037;-74
2023/01/29 01:37:32;;;;;;;9.32;6.22;;;;;;;2.98;100.00;100746.53;5009400;28;20468;-75
2023/01/29 01:39:57;;;;;;;10.90;6.30;;;;;;;3.03;100.00;100756.28;5010431;28;20032;-71
2023/01/29 01:42:29;;;;;;;10.00;7.20;;;;;;;3.03;100.00;100751.19;5010457;28;20080;-73
2023/01/29 01:44:57;;;;;;;9.20;6.53;;;;;;;3.00;100.00;100753.50;5010679;28;20030;-73
2023/01/29 01:48:22;;;;;;;9.00;6.28;;;;;;;3.02;100.00;100754.50;5010432;28;20438;-72
2023/01/29 01:51:03;;;;;;;9.48;6.80;;;;;;;3.03;100.00;100751.19;4968627;28;20134;-75
2023/01/29 01:53:48;;;;;;;9.32;5.85;;;;;;;3.01;100.00;100756.97;4969001;28;20042;-72
2023/01/29 01:56:37;;;;;;;8.57;6.05;;;;;;;2.99;100.00;100761.06;4968484;28;20049;-72
2023/01/29 01:59:05;;;;;;;9.38;6.05;;;;;;;2.79;100.00;100722.28;4968818;28;20069;-75
2023/01/29 02:01:32;;;;;;;10.10;6.82;;;;;;;2.95;100.00;100747.19;4969096;28;20222;-75
2023/01/29 02:10:11;;;;;;;9.32;6.40;;;;;;;2.95;100.00;100743.78;4930661;29;20070;-74
2023/01/29 02:12:37;;;;;;;8.65;6.18;;;;;;;3.07;100.00;100755.72;4930292;29;20042;-72
2023/01/29 02:15:03;;;;;;;9.45;5.97;;;;;;;3.05;100.00;100741.09;4892457;29;20048;-72
2023/01/29 02:17:29;;;;;;;8.70;6.10;;;;;;;3.12;100.00;100771.38;4892611;29;20108;-72
2023/01/29 02:20:00;;;;;;;9.15;6.38;;;;;;;2.92;100.00;100717.25;4895779;29;20483;-72
2023/01/29 02:22:40;;;;;;;8.90;6.43;;;;;;;3.17;100.00;100771.72;4914579;29;20095;-74
2023/01/29 02:25:24;;;;;;;11.68;6.05;;;;;;;3.17;100.00;100774.25;4914718;29;20051;-76
2023/01/29 02:28:14;;;;;;;9.52;5.97;;;;;;;3.12;100.00;100771.38;4914524;29;20067;-71
2023/01/29 02:30:45;;;;;;;10.02;7.25;;;;;;;3.05;100.00;100770.06;4914547;29;20044;-72
2023/01/29 02:33:38;;;;;;;9.88;6.97;;;;;;;3.09;100.00;100776.28;4914602;29;20036;-71
2023/01/29 02:36:16;;;;;;;10.55;6.80;;;;;;;3.12;100.00;100781.56;4914420;29;20052;-74
2023/01/29 02:39:03;;;;;;;10.90;7.20;;;;;;;3.04;100.00;100768.28;4898524;29;20174;-73
2023/01/29 02:41:43;;;;;;;9.10;6.18;;;;;;;3.13;100.00;100782.44;4914421;29;20465;-73
2023/01/29 02:44:30;;;;;;;8.80;5.82;;;;;;;2.87;100.00;100743.22;4979499;28;20173;-75
2023/01/29 02:47:13;;;;;;;9.60;6.15;;;;;;;3.10;100.00;100780.56;5005907;28;20049;-73
2023/01/29 02:49:51;;;;;;;10.15;6.68;;;;;;;3.12;100.00;100785.81;5012995;28;20030;-75
2023/01/29 02:52:26;;;;;;;10.57;6.63;;;;;;;3.06;100.00;100768.38;5012907;28;20476;-75
2023/01/29 02:55:01;;;;;;;9.02;6.28;;;;;;;3.08;100.00;100780.47;5012759;28;20084;-75
2023/01/29 02:57:31;;;;;;;10.00;6.20;;;;;;;3.14;100.00;100787.69;5011799;28;20049;-73
2023/01/29 03:00:05;;;;;;;8.95;6.07;;;;;;;3.16;100.00;100788.66;5011711;28;20030;-74
2023/01/29 03:02:43;;;;;;;7.97;5.78;;;;;;;2.96;100.00;100758.31;5012741;28;20025;-74
2023/01/29 03:05:16;;;;;;;8.43;5.78;;;;;;;3.11;100.00;100792.56;5012688;28;20022;-73
2023/01/29 03:07:47;;;;;;;9.35;6.40;;;;;;;3.11;100.00;100795.09;5012574;28;20073;-75
2023/01/29 03:10:25;;;;;;;10.63;6.70;;;;;;;3.13;100.00;100798.66;5012581;28;20037;-74
2023/01/29 03:12:58;;;;;;;8.98;6.55;;;;;;;2.72;100.00;100728.56;5012723;28;20034;-75
2023/01/29 03:15:38;;;;;;;8.95;5.93;;;;;;;3.17;100.00;100810.84;5012429;28;20064;-72
2023/01/29 03:18:12;;;;;;;9.32;6.25;;;;;;;3.22;100.00;100813.75;5011311;28;20447;-72
2023/01/29 03:20:46;;;;;;;9.38;6.50;;;;;;;3.22;100.00;100813.75;5012683;28;20101;-74
2023/01/29 03:23:46;;;;;;;8.18;5.68;;;;;;;3.20;100.00;100815.28;5012431;28;20026;-75
2023/01/29 03:34:33;;;;;;;7.90;5.25;;;;;;;3.01;100.00;100819.06;4992784;28;20044;-74
2023/01/29 03:37:06;;;;;;;8.65;5.75;;;;;;;2.60;100.00;100748.06;4992397;28;20030;-74
2023/01/29 03:39:33;;;;;;;8.20;5.72;;;;;;;2.92;100.00;100818.41;4993043;28;20031;-76
2023/01/29 03:42:36;;;;;;;11.30;7.00;;;;;;;3.01;100.00;100833.47;4992906;28;20077;-73
2023/01/29 03:45:18;;;;;;;10.25;7.03;;;;;;;2.94;100.00;100836.34;4990041;28;20547;-75
2023/01/29 03:48:15;;;;;;;11.45;6.47;;;;;;;2.68;100.00;100792.88;4970464;28;20078;-72
2023/01/29 03:51:02;;;;;;;8.30;5.55;;;;;;;2.91;100.00;100837.00;4970391;28;20042;-71
2023/01/29 03:53:34;;;;;;;7.78;5.30;;;;;;;2.89;100.00;100836.91;4970312;28;20026;-74
2023/01/29 03:56:01;;;;;;;7.32;5.40;;;;;;;2.92;100.00;100833.69;4970251;28;20039;-72
2023/01/29 03:58:41;;;;;;;7.65;5.18;;;;;;;2.92;100.00;100838.78;4970360;28;20101;-71
2023/01/29 04:01:25;;;;;;;8.38;5.25;;;;;;;2.90;100.00;100837.78;4970262;28;20031;-75
2023/01/29 04:04:03;;;;;;;7.45;4.95;;;;;;;2.85;100.00;100834.88;4970063;28;20038;-74
2023/01/29 04:06:34;;;;;;;8.38;5.35;;;;;;;2.85;100.00;100839.13;4953502;28;20465;-75
2023/01/29 04:09:24;;;;;;;8.15;5.80;;;;;;;2.87;100.00;100842.69;4970145;28;20039;-74
2023/01/29 04:12:00;;;;;;;7.65;5.55;;;;;;;2.73;100.00;100836.56;4970203;28;20038;-74
2023/01/29 04:14:27;;;;;;;6.68;4.63;;;;;;;2.57;100.00;100837.94;4969956;28;20576;-71
2023/01/29 04:16:56;;;;;;;8.32;5.03;;;;;;;2.30;100.00;100797.66;4970120;28;20065;-71
2023/01/29 04:19:22;;;;;;;8.32;5.57;;;;;;;2.53;100.00;100845.25;4965708;28;20518;-75
2023/01/29 04:21:54;;;;;;;8.07;5.53;;;;;;;2.51;100.00;100851.91;4983381;28;20104;-72
2023/01/29 04:24:19;;;;;;;7.72;5.15;;;;;;;2.42;100.00;100829.16;4991777;28;20033;-77
2023/01/29 04:27:04;;;;;;;7.25;5.07;;;;;;;2.61;100.00;100854.38;4991490;28;20061;-75
2023/01/29 04:30:13;;;;;;;8.05;5.55;;;;;;;2.59;100.00;100856.81;4991567;28;20057;-78
2023/01/29 04:33:10;;;;;;;7.53;5.00;;;;;;;2.61;100.00;100856.03;4991711;28;20066;-74
2023/01/29 04:36:12;;;;;;;7.90;5.35;;;;;;;2.63;100.00;100870.66;4988899;28;20042;-73
2023/01/29 04:39:04;;;;;;;8.98;5.40;;;;;;;2.62;100.00;100863.78;4989034;28;20030;-73
2023/01/29 04:41:48;;;;;;;9.80;6.57;;;;;;;2.37;100.00;100825.38;4988503;28;20508;-74
2023/01/29 04:44:25;;;;;;;8.50;5.22;;;;;;;2.63;100.00;100874.88;4972780;28;20030;-75
2023/01/29 04:47:11;;;;;;;8.15;5.75;;;;;;;2.60;100.00;100857.69;4988878;28;20061;-74
2023/01/29 04:49:39;;;;;;;11.68;7.38;;;;;;;2.65;100.00;100879.31;4988912;28;20113;-77
2023/01/29 04:52:33;;;;;;;8.80;6.20;;;;;;;2.67;100.00;100876.88;4988944;28;20034;-72
2023/01/29 04:55:29;;;;;;;8.75;5.88;;;;;;;2.57;100.00;100878.72;4984342;28;20086;-72
2023/01/29 04:58:31;;;;;;;9.45;6.13;;;;;;;2.53;100.00;100878.38;4912116;29;20051;-71
2023/01/29 05:00:57;;;;;;;8.90;5.95;;;;;;;2.49;100.00;100871.28;4819507;29;20102;-73
2023/01/29 05:03:26;;;;;;;8.63;5.45;;;;;;;2.49;100.00;100879.78;4819289;29;20050;-74
2023/01/29 05:05:54;;;;;;;9.30;5.70;;;;;;;2.25;100.00;100840.63;4803922;29;20038;-71
2023/01/29 05:08:25;;;;;;;9.63;5.90;;;;;;;2.57;100.00;100882.94;4804118;29;20042;-70
2023/01/29 05:10:53;;;;;;;8.02;5.70;;;;;;;2.59;100.00;100889.03;4819154;29;20091;-74
2023/01/29 05:13:21;;;;;;;8.07;5.82;;;;;;;2.45;100.00;100862.50;4819305;29;20034;-73
2023/01/29 05:16:13;;;;;;;8.05;5.80;;;;;;;2.66;100.00;100892.94;4819228;29;20053;-72
2023/01/29 05:18:39;;;;;;;8.35;6.05;;;;;;;2.66;100.00;100904.03;4819300;29;20049;-74
2023/01/29 05:21:07;;;;;;;8.55;5.40;;;;;;;2.66;100.00;100896.38;4819177;29;20490;-71
2023/01/29 05:23:32;;;;;;;10.00;6.53;;;;;;;2.37;100.00;100855.97;4819322;29;20030;-75
2023/01/29 05:25:58;;;;;;;12.65;7.97;;;;;;;2.56;100.00;100899.00;4819049;29;20223;-71
2023/01/29 05:28:23;;;;;;;8.65;5.60;;;;;;;2.51;100.00;100905.44;4818995;29;20050;-74
2023/01/29 05:30:51;;;;;;;10.55;6.18;;;;;;;2.40;100.00;100874.00;4819329;29;20244;-75
2023/01/29 05:33:20;;;;;;;9.07;6.20;;;;;;;2.58;100.00;100898.34;4819233;29;20042;-71
2023/01/29 05:35:45;;;;;;;10.13;6.15;;;;;;;2.58;100.00;100913.66;4888109;29;20053;-76
2023/01/29 05:38:12;;;;;;;9.90;6.95;;;;;;;2.55;100.00;100908.31;4959772;28;20054;-72
2023/01/29 05:40:38;;;;;;;9.38;6.07;;;;;;;2.25;100.00;100868.63;4989750;28;20026;-74
2023/01/29 05:43:04;;;;;;;9.25;6.13;;;;;;;2.48;100.00;100920.47;4990857;28;20105;-72
2023/01/29 05:45:30;;;;;;;9.00;6.10;;;;;;;2.39;100.00;100930.84;4989576;28;20038;-73
2023/01/29 05:47:57;;;;;;;9.00;6.00;;;;;;;2.12;100.00;100925.41;4990752;28;20088;-73
2023/01/29 05:50:24;;;;;;;10.52;6.70;;;;;;;1.98;100.00;100936.16;4989484;28;20053;-74
2023/01/29 05:52:54;;;;;;;11.70;7.20;;;;;;;1.59;100.00;100928.88;4993133;28;20030;-74
2023/01/29 05:55:19;;;;;;;11.27;7.28;;;;;;;1.15;100.00;100940.53;4993358;28;20054;-74
2023/01/29 05:57:45;;;;;;;13.20;8.70;;;;;;;1.04;100.00;100947.31;4994268;28;20038;-75
2023/01/29 06:00:11;;;;;;;15.85;8.68;;;;;;;0.88;100.00;100940.06;4994656;28;20480;-75
2023/01/29 06:02:37;;;;;;;13.27;7.72;;;;;;;0.67;100.00;100940.03;4994211;28;20037;-71
2023/01/29 06:05:03;;;;;;;14.27;8.48;;;;;;;0.37;100.00;100921.44;4992911;28;20109;-75
2023/01/29 06:07:28;;;;;;;15.88;8.85;;;;;;;0.61;100.00;100957.28;4994169;28;20027;-72
2023/01/29 06:09:55;;;;;;;14.20;8.02;;;;;;;0.60;100.00;100968.25;4994005;28;20491;-75
2023/01/29 06:12:20;;;;;;;16.60;8.80;;;;;;;0.62;100.00;100974.31;4994021;28;20041;-74
2023/01/29 06:14:46;;;;;;;14.03;7.07;;;;;;;0.45;100.00;100967.84;4993981;28;20038;-74
2023/01/29 06:17:11;;;;;;;14.05;7.47;;;;;;;0.30;100.00;100970.81;4993944;28;20455;-75
2023/01/29 06:19:36;;;;;;;14.03;7.67;;;;;;;0.39;100.00;100977.47;4993738;28;20439;-77
2023/01/29 06:22:02;;;;;;;16.13;8.77;;;;;;;0.09;100.00;100914.00;4993999;28;20031;-77
2023/01/29 06:24:27;;;;;;;15.13;8.60;;;;;;;0.43;100.00;100982.03;4992535;28;20034;-77
2023/01/29 06:26:53;;;;;;;16.30;7.00;;;;;;;0.37;100.00;100977.31;4993588;28;20036;-77
2023/01/29 06:29:18;;;;;;;15.33;8.50;;;;;;;0.37;100.00;100979.84;4993451;28;20571;-75
2023/01/29 06:31:44;;;;;;;15.30;8.90;;;;;;;0.56;100.00;100989.97;4993838;28;20026;-75
2023/01/29 06:34:09;;;;;;;17.33;9.40;;;;;;;0.66;100.00;100983.09;5001579;28;20030;-74
2023/01/29 06:36:35;;;;;;;15.18;8.77;;;;;;;0.84;100.00;100992.28;5008782;28;20023;-77
2023/01/29 06:39:00;;;;;;;15.05;8.98;;;;;;;0.76;100.00;100968.78;5012965;28;20472;-77
2023/01/29 06:41:26;;;;;;;13.80;8.02;;;;;;;0.89;100.00;100993.56;5007258;28;20038;-78
2023/01/29 06:43:51;;;;;;;13.50;8.23;;;;;;;0.86;100.00;101007.66;5001151;28;20112;-78
2023/01/29 06:46:17;;;;;;;15.70;8.32;;;;;;;0.86;100.00;101002.56;5008477;28;20162;-78
2023/01/29 06:48:42;;;;;;;12.38;7.13;;;;;;;0.32;100.00;100927.78;5011905;28;20034;-79
2023/01/29 06:51:09;;;;;;;12.38;7.28;;;;;;;0.67;100.00;101006.09;5011829;28;20038;-78
2023/01/29 06:53:36;;;;;;;13.40;7.13;;;;;;;0.71;100.00;101008.16;5007286;28;20029;-80
2023/01/29 06:56:02;;;;;;;13.80;7.60;;;;;;;0.75;100.00;101009.31;5007989;28;20044;-81
2023/01/29 06:58:28;;;;;;;12.95;7.97;;;;;;;0.88;100.00;101001.94;5011523;28;20029;-77
2023/01/29 07:00:53;;;;;;;13.98;7.32;;;;;;;0.74;100.00;100982.13;5012907;28;20498;-74
2023/01/29 07:03:19;;;;;;;13.48;7.25;;;;;;;0.94;100.00;101011.75;5011970;28;20045;-78
2023/01/29 07:05:51;;;;;;;13.80;8.25;;;;;;;0.78;100.00;101017.19;5012597;28;20443;-77
2023/01/29 07:08:17;;;;;;;13.63;7.22;;;;;;;0.69;100.00;101009.66;5012643;28;20400;-75
2023/01/29 07:10:43;;;;;;;15.38;8.70;;;;;;;0.76;100.00;101021.22;5011320;28;20033;-78
2023/01/29 07:13:08;;;;;;;14.40;8.10;;;;;;;0.90;100.00;101024.97;5012621;28;20480;-77
2023/01/29 07:15:35;;;;;;;12.25;7.00;;;;;;;0.90;100.00;101020.75;5011272;28;20088;-75
2023/01/29 07:18:02;;;;;;;14.13;8.40;;;;;;;0.76;100.00;100991.66;5012687;28;20038;-75
2023/01/29 07:20:29;;;;;;;13.30;7.85;;;;;;;1.03;100.00;101030.31;5012464;28;20026;-75
2023/01/29 07:22:56;;;;;;;12.20;7.18;;;;;;;1.01;100.00;101018.22;5011024;28;20045;-75
2023/01/29 07:25:21;;;;;;;11.80;6.90;;;;;;;1.02;100.00;101025.97;5012280;28;20026;-77
2023/01/29 07:27:48;;;;;;;12.18;7.30;;;;;;;1.00;100.00;101022.44;5010971;28;20060;-75
2023/01/29 07:30:14;;;;;;;13.63;7.35;;;;;;;0.60;100.00;100945.38;5012322;28;20056;-76
2023/01/29 07:32:40;;;;;;;10.45;6.60;;;;;;;1.12;100.00;101032.72;5012499;28;20026;-80
2023/01/29 07:35:07;;;;;;;12.60;6.30;;;;;;;0.97;100.00;101022.16;5003661;28;20034;-76
2023/01/29 07:37:32;;;;;;;10.68;6.68;;;;;;;0.93;100.00;101020.13;4991318;28;20031;-74
2023/01/29 07:39:58;;;;;;;11.73;6.60;;;;;;;0.90;100.00;101014.81;4992454;28;20157;-74
2023/01/29 07:42:23;;;;;;;10.27;6.10;;;;;;;0.93;100.00;101032.84;4991230;28;20034;-76
2023/01/29 07:44:49;;;;;;;11.43;6.82;;;;;;;0.93;100.00;101025.22;4992308;28;20033;-74
2023/01/29 07:47:14;;;;;;;10.48;5.95;;;;;;;0.85;100.00;101000.78;4992195;28;20026;-74
2023/01/29 07:49:39;;;;;;;11.27;6.53;;;;;;;0.72;100.00;100978.53;4992442;28;20470;-73
2023/01/29 07:52:05;;;;;;;11.82;7.05;;;;;;;1.00;100.00;101027.53;4992315;28;20524;-76
2023/01/29 07:54:30;;;;;;;10.68;6.35;;;;;;;1.00;100.00;101027.53;4992589;28;20028;-73
2023/01/29 07:56:56;;;;;;;11.90;7.05;;;;;;;0.96;100.00;101036.53;4992270;28;20033;-73
2023/01/29 07:59:22;;;;;;;13.88;7.90;;;;;;;0.96;100.00;101022.94;4992224;28;20027;-74
2023/01/29 08:01:47;;;;;;;12.13;7.63;;;;;;;1.10;100.00;101029.19;4992307;28;20031;-75
2023/01/29 08:04:13;;;;;;;11.57;7.05;;;;;;;1.11;100.00;101042.03;4992286;28;20391;-77
2023/01/29 08:06:39;;;;;;;13.65;7.15;;;;;;;1.12;100.00;101033.63;4992194;28;20188;-76
2023/01/29 08:09:04;;;;;;;13.77;7.15;;;;;;;1.03;100.00;101025.22;5008793;28;20567;-74
2023/01/29 08:11:30;;;;;;;10.18;6.90;;;;;;;1.21;100.00;101042.78;5008909;28;20038;-73
2023/01/29 08:13:56;;;;;;;11.70;7.47;;;;;;;1.36;100.00;101036.44;5008953;28;20088;-74
2023/01/29 08:16:22;;;;;;;10.45;6.43;;;;;;;1.21;100.00;101041.16;5009077;28;20113;-77
2023/01/29 08:18:47;;;;;;;9.65;6.13;;;;;;;1.25;100.00;101034.66;4992589;28;20183;-79
2023/01/29 08:21:13;;;;;;;9.93;6.32;;;;;;;1.36;100.00;101040.63;5008977;28;20369;-76
2023/01/29 08:23:39;;;;;;;12.63;7.25;;;;;;;1.39;100.00;101054.50;4992353;28;20450;-79
2023/01/29 08:26:05;;;;;;;14.10;6.97;;;;;;;1.49;100.00;101050.19;5008894;28;20096;-81
2023/01/29 08:28:30;;;;;;;12.13;7.93;;;;;;;1.54;100.00;101057.41;5008758;28;20140;-80
2023/01/29 08:30:56;;;;;;;12.20;7.35;;;;;;;1.42;100.00;101008.97;4992417;28;20503;-78
2023/01/29 08:33:21;;;;;;;11.02;7.15;;;;;;;1.80;100.00;101052.69;5008865;28;20038;-77
2023/01/29 08:35:50;;;;;;;10.90;7.20;;;;;;;1.90;100.00;101047.59;4992248;28;20492;-77
2023/01/29 08:38:16;;;;;;;10.60;7.25;;;;;;;2.00;100.00;101049.22;5008712;28;20070;-74
2023/01/29 08:40:43;;;;;;;11.88;7.10;;;;;;;2.14;100.00;101046.09;4995532;28;20042;-77
2023/01/29 08:43:10;;;;;;;10.02;6.65;;;;;;;2.22;100.00;101055.25;4991695;28;20034;-75
2023/01/29 08:45:39;;;;;;;10.68;6.75;;;;;;;2.25;100.00;101057.16;4991503;28;20023;-78
2023/01/29 08:48:06;;;;;;;9.88;6.60;;;;;;;2.22;100.00;101060.34;4990010;28;20406;-79
2023/01/29 08:50:33;;;;;;;10.63;7.35;;;;;;;2.23;100.00;101058.69;5008219;28;20033;-76
2023/01/29 08:53:01;;;;;;;11.23;7.97;;;;;;;2.20;100.00;101061.00;4992155;28;20381;-79
2023/01/29 08:55:27;;;;;;;11.70;8.23;;;;;;;2.28;100.00;101061.59;5002403;28;20034;-81
2023/01/29 08:57:56;;;;;;;12.77;8.18;;;;;;;2.25;100.00;101047.84;5008338;28;20034;-80
2023/01/29 09:00:21;;;;;;;11.07;6.82;;;;;;;2.09;100.00;101015.19;5008418;28;20050;-80
2023/01/29 09:02:47;;;;;;;10.45;6.55;;;;;;;2.30;100.00;101063.50;5008581;28;20040;-80
2023/01/29 09:05:12;;;;;;;10.55;6.75;;;;;;;2.20;100.00;101068.66;4991798;28;20030;-78
2023/01/29 09:07:38;;;;;;;10.90;6.85;;;;;;;2.03;100.00;101063.09;5008562;28;20052;-80
2023/01/29 09:10:04;;;;;;;9.57;7.03;;;;;;;2.04;100.00;101059.75;5008203;28;20102;-80
2023/01/29 09:12:30;;;;;;;12.00;7.70;;;;;;;2.19;100.00;101060.09;4991647;28;20559;-74
2023/01/29 09:14:55;;;;;;;11.52;7.95;;;;;;;2.35;100.00;101058.78;5008465;28;20105;-75
2023/01/29 09:17:21;;;;;;;12.70;8.68;;;;;;;2.31;100.00;101029.63;4991977;28;20498;-74
2023/01/29 09:19:46;;;;;;;11.13;7.82;;;;;;;2.50;100.00;101047.25;5024362;28;20034;-75
2023/01/29 09:22:12;;;;;;;13.00;9.35;;;;;;;2.63;100.00;101056.75;5009092;28;20044;-74
2023/01/29 09:24:37;;;;;;;12.65;8.50;;;;;;;2.68;100.00;101060.56;5009174;28;20077;-74
2023/01/29 09:27:04;;;;;;;12.82;8.52;;;;;;;2.78;100.00;101059.63;5010421;28;20029;-75
2023/01/29 09:29:29;;;;;;;12.90;9.07;;;;;;;2.83;100.00;101062.50;5014769;28;20116;-77
2023/01/29 09:31:55;;;;;;;11.57;8.50;;;;;;;2.70;100.00;101061.53;5014478;28;20114;-74
2023/01/29 09:34:20;;;;;;;12.35;8.52;;;;;;;2.72;100.00;101062.56;5014642;28;20025;-75
2023/01/29 09:36:46;;;;;;;12.15;8.25;;;;;;;2.70;100.00;101060.66;5013392;28;20029;-72
2023/01/29 09:39:11;;;;;;;16.58;9.40;;;;;;;2.57;100.00;101056.28;5012952;28;20474;-74
2023/01/29 09:41:51;;;;;;;14.77;9.63;;;;;;;2.56;100.00;101062.13;5014283;28;20033;-76
2023/01/29 09:44:22;;;;;;;10.95;7.95;;;;;;;2.41;100.00;101039.75;5013155;28;20099;-76
2023/01/29 09:47:12;;;;;;;11.02;7.32;;;;;;;2.43;100.00;101062.84;5031313;28;20030;-75
2023/01/29 09:49:44;;;;;;;11.10;7.15;;;;;;;2.21;100.00;101015.25;5031564;28;20037;-75
2023/01/29 09:52:18;;;;;;;10.75;7.07;;;;;;;2.45;100.00;101050.22;5031639;28;20124;-77
2023/01/29 09:55:14;;;;;;;11.05;7.50;;;;;;;2.44;100.00;101051.84;5031679;28;20515;-74
2023/01/29 09:57:53;;;;;;;10.52;6.60;;;;;;;2.28;100.00;101039.59;5031304;28;20500;-76
2023/01/29 10:00:35;;;;;;;11.18;7.90;;;;;;;2.36;100.00;101046.16;5031271;28;20034;-77
2023/01/29 10:03:22;;;;;;;12.07;8.68;;;;;;;2.47;100.00;101043.56;5031199;28;20207;-77
2023/01/29 10:05:56;;;;;;;11.65;7.75;;;;;;;2.43;100.00;101045.00;5031263;28;20037;-77
2023/01/29 10:08:54;;;;;;;11.68;7.60;;;;;;;2.36;100.00;101042.72;5031263;28;20034;-75
2023/01/29 10:11:44;;;;;;;12.45;7.75;;;;;;;2.21;100.00;101009.28;4953175;29;20043;-75
2023/01/29 10:14:36;;;;;;;11.88;7.45;;;;;;;2.34;100.00;101040.03;4936896;29;20067;-77
2023/01/29 10:17:10;;;;;;;11.75;7.78;;;;;;;2.26;100.00;101034.34;4953093;29;20038;-75
2023/01/29 10:20:17;;;;;;;14.38;8.85;;;;;;;2.38;100.00;101024.25;4952940;29;20035;-77
2023/01/29 10:23:08;;;;;;;13.23;8.63;;;;;;;2.12;100.00;100978.88;4933601;29;20162;-75
2023/01/29 10:25:39;;;;;;;12.07;7.80;;;;;;;2.37;100.00;101021.59;4952736;29;20039;-76
2023/01/29 10:28:42;;;;;;;11.63;7.72;;;;;;;2.14;100.00;100986.63;4895446;29;20571;-78
2023/01/29 10:31:31;;;;;;;13.05;8.52;;;;;;;2.33;100.00;101017.00;4880025;29;20048;-75
2023/01/29 10:34:05;;;;;;;11.52;7.88;;;;;;;2.32;100.00;101007.56;4895554;29;20195;-76
2023/01/29 10:36:43;;;;;;;14.23;9.20;;;;;;;2.46;100.00;100998.47;4895620;29;20523;-73
2023/01/29 10:39:20;;;;;;;13.38;8.13;;;;;;;2.52;100.00;100994.75;4894468;29;20041;-72
2023/01/29 10:42:13;;;;;;;13.70;9.07;;;;;;;2.63;100.00;100997.22;4895607;29;20045;-76
2023/01/29 10:44:41;;;;;;;12.93;8.27;;;;;;;2.61;100.00;100986.91;4895516;29;20195;-73
2023/01/29 10:47:31;;;;;;;15.15;9.55;;;;;;;2.56;100.00;100993.31;4917114;29;20620;-76
2023/01/29 10:50:11;;;;;;;10.35;7.05;;;;;;;2.66;100.00;100990.69;4933266;29;20048;-73
2023/01/29 10:53:08;;;;;;;17.38;11.82;;;;;;;2.70;100.00;100986.72;4917211;29;20499;-77
2023/01/29 10:55:57;;;;;;;18.13;13.57;;;;;;;2.49;100.00;100945.19;4917131;29;20156;-75
2023/01/29 10:58:37;;;;;;;14.95;10.10;;;;;;;2.69;100.00;100980.75;4933088;29;20043;-76
2023/01/29 11:01:02;;;;;;;;;;;;;;;2.70;100.00;100985.06;4917566;29;20035;-74
2023/01/29 11:03:32;;;;;;;16.55;12.15;;;;;;;2.69;100.00;100974.75;4965863;28;19918;-73
2023/01/29 11:06:19;;;;;;;15.13;11.50;;;;;;;2.69;100.00;100973.09;4993437;28;20042;-75
2023/01/29 11:09:14;;;;;;;14.23;9.65;;;;;;;2.76;100.00;100969.34;5006415;28;20030;-77
2023/01/29 11:11:42;;;;;;;14.13;9.73;;;;;;;2.58;100.00;100971.41;4971047;28;20047;-78
2023/01/29 11:14:35;;;;;;;14.52;10.25;;;;;;;2.64;100.00;100966.78;4971281;28;20125;-73
2023/01/29 11:17:01;;;;;;;14.40;9.82;;;;;;;2.71;100.00;100969.00;4954185;28;20496;-76
2023/01/29 11:19:50;;;;;;;12.73;9.80;;;;;;;2.79;100.00;100964.50;4960189;28;20039;-75
2023/01/29 11:22:24;;;;;;;13.63;10.30;;;;;;;2.88;100.00;100965.19;4962792;28;20114;-74
2023/01/29 11:25:18;;;;;;;15.20;10.52;;;;;;;2.98;100.00;100963.31;4962949;28;20023;-74
2023/01/29 11:28:04;;;;;;;16.70;10.93;;;;;;;3.01;100.00;100961.88;4961526;28;20067;-74
2023/01/29 11:30:30;;;;;;;15.80;11.30;;;;;;;2.86;100.00;100925.91;4961792;28;20035;-74
2023/01/29 11:33:22;;;;;;;15.55;10.75;;;;;;;3.00;100.00;100957.56;4961494;28;20035;-76
2023/01/29 11:35:48;;;;;;;16.67;12.15;;;;;;;2.98;100.00;100950.56;4962711;28;20041;-74
2023/01/29 11:38:23;;;;;;;19.23;12.40;;;;;;;3.07;100.00;100957.25;4969162;28;20034;-77
2023/01/29 11:40:50;;;;;;;15.55;10.30;;;;;;;2.78;100.00;100942.31;4969008;28;20097;-74
2023/01/29 11:43:31;;;;;;;17.02;11.57;;;;;;;2.59;100.00;100907.78;4969898;28;20031;-74
2023/01/29 11:46:06;;;;;;;18.30;11.63;;;;;;;2.61;100.00;100913.00;4969492;28;20026;-76
2023/01/29 11:48:47;;;;;;;17.30;11.65;;;;;;;2.73;100.00;100943.63;4958870;28;20044;-76
2023/01/29 11:51:28;;;;;;;16.85;11.85;;;;;;;2.68;100.00;100938.19;4950053;28;20110;-77
2023/01/29 11:54:02;;;;;;;17.20;11.88;;;;;;;2.68;100.00;100934.72;4996093;28;20128;-70
2023/01/29 11:56:43;;;;;;;21.13;13.35;;;;;;;2.73;100.00;100934.31;5005020;28;20031;-78
2023/01/29 11:59:27;;;;;;;33.17;18.98;;;;;;;2.49;100.00;100884.91;4992804;28;20481;-72
2023/01/29 12:01:54;;;;;;;17.25;12.10;;;;;;;2.55;100.00;100913.41;5006510;28;20109;-72
2023/01/29 12:04:23;;;;;;;19.88;12.73;;;;;;;2.66;100.00;100921.00;4991649;28;20500;-74